sensor_id;sensor_type;location;lat;lon;timestamp;P1;durP1;ratioP1;P2;durP2;ratioP2
27863;SDS011;15980;51.092;13.916;2022-08-01T00:04:38;4.43;;;2.38;;
27863;SDS011;15980;51.092;13.916;2022-08-01T00:09:42;2.25;;;1.98;;
27863;SDS011;15980;51.092;13.916;2022-08-01T00:14:44;3.58;;;2.28;;
27863;SDS011;15980;51.092;13.916;2022-08-01T00:19:49;3.33;;;2.58;;
27863;SDS011;15980;51.092;13.916;2022-08-01T00:24:52;4.22;;;2.60;;
27863;SDS011;15980;51.092;13.916;2022-08-01T00:29:55;5.63;;;2.67;;
27863;SDS011;15980;51.092;13.916;2022-08-01T00:34:59;3.00;;;2.70;;
27863;SDS011;15980;51.092;13.916;2022-08-01T00:40:03;5.05;;;2.85;;
27863;SDS011;15980;51.092;13.916;2022-08-01T00:45:07;2.90;;;2.60;;
27863;SDS011;15980;51.092;13.916;2022-08-01T00:50:12;3.03;;;2.40;;
27863;SDS011;15980;51.092;13.916;2022-08-01T00:55:15;4.25;;;2.45;;
27863;SDS011;15980;51.092;13.916;2022-08-01T01:00:21;3.53;;;2.67;;
27863;SDS011;15980;51.092;13.916;2022-08-01T01:05:26;3.75;;;2.80;;
27863;SDS011;15980;51.092;13.916;2022-08-01T01:10:30;2.97;;;2.63;;
27863;SDS011;15980;51.092;13.916;2022-08-01T01:15:40;3.33;;;2.60;;
27863;SDS011;15980;51.092;13.916;2022-08-01T01:20:49;4.25;;;2.70;;
27863;SDS011;15980;51.092;13.916;2022-08-01T01:26:08;3.67;;;2.88;;
27863;SDS011;15980;51.092;13.916;2022-08-01T01:31:21;3.80;;;2.72;;
27863;SDS011;15980;51.092;13.916;2022-08-01T01:36:28;3.00;;;2.58;;
27863;SDS011;15980;51.092;13.916;2022-08-01T01:41:33;3.95;;;2.60;;
27863;SDS011;15980;51.092;13.916;2022-08-01T01:46:41;5.47;;;2.60;;
27863;SDS011;15980;51.092;13.916;2022-08-01T01:51:46;4.82;;;3.28;;
27863;SDS011;15980;51.092;13.916;2022-08-01T01:56:50;4.32;;;3.00;;
27863;SDS011;15980;51.092;13.916;2022-08-01T02:01:56;3.90;;;2.92;;
27863;SDS011;15980;51.092;13.916;2022-08-01T02:07:03;2.80;;;2.35;;
27863;SDS011;15980;51.092;13.916;2022-08-01T02:12:10;3.42;;;2.67;;
27863;SDS011;15980;51.092;13.916;2022-08-01T02:17:17;2.58;;;2.38;;
27863;SDS011;15980;51.092;13.916;2022-08-01T02:22:24;6.45;;;2.85;;
27863;SDS011;15980;51.092;13.916;2022-08-01T02:27:33;4.30;;;2.50;;
27863;SDS011;15980;51.092;13.916;2022-08-01T02:32:44;5.43;;;2.92;;
27863;SDS011;15980;51.092;13.916;2022-08-01T02:37:51;4.22;;;2.92;;
27863;SDS011;15980;51.092;13.916;2022-08-01T02:42:55;3.80;;;2.90;;
27863;SDS011;15980;51.092;13.916;2022-08-01T02:48:03;4.32;;;2.85;;
27863;SDS011;15980;51.092;13.916;2022-08-01T02:53:12;4.85;;;3.15;;
27863;SDS011;15980;51.092;13.916;2022-08-01T02:58:17;4.35;;;2.85;;
27863;SDS011;15980;51.092;13.916;2022-08-01T03:03:23;3.55;;;2.45;;
27863;SDS011;15980;51.092;13.916;2022-08-01T03:08:27;2.95;;;2.22;;
27863;SDS011;15980;51.092;13.916;2022-08-01T03:13:32;4.85;;;2.65;;
27863;SDS011;15980;51.092;13.916;2022-08-01T03:18:37;3.17;;;2.33;;
27863;SDS011;15980;51.092;13.916;2022-08-01T03:23:43;4.45;;;2.90;;
27863;SDS011;15980;51.092;13.916;2022-08-01T03:28:49;4.40;;;3.05;;
27863;SDS011;15980;51.092;13.916;2022-08-01T03:33:57;3.38;;;2.88;;
27863;SDS011;15980;51.092;13.916;2022-08-01T03:39:04;3.50;;;2.70;;
27863;SDS011;15980;51.092;13.916;2022-08-01T03:44:13;3.28;;;2.72;;
27863;SDS011;15980;51.092;13.916;2022-08-01T03:49:21;2.92;;;2.63;;
27863;SDS011;15980;51.092;13.916;2022-08-01T03:54:28;3.35;;;2.88;;
27863;SDS011;15980;51.092;13.916;2022-08-01T03:59:35;3.03;;;2.70;;
27863;SDS011;15980;51.092;13.916;2022-08-01T04:04:41;3.28;;;2.75;;
27863;SDS011;15980;51.092;13.916;2022-08-01T04:09:44;4.65;;;3.08;;
27863;SDS011;15980;51.092;13.916;2022-08-01T04:14:47;3.80;;;3.10;;
27863;SDS011;15980;51.092;13.916;2022-08-01T04:19:52;5.05;;;3.00;;
27863;SDS011;15980;51.092;13.916;2022-08-01T04:24:56;4.18;;;3.03;;
27863;SDS011;15980;51.092;13.916;2022-08-01T04:30:01;3.67;;;2.60;;
27863;SDS011;15980;51.092;13.916;2022-08-01T04:35:08;3.92;;;2.90;;
27863;SDS011;15980;51.092;13.916;2022-08-01T04:40:18;5.22;;;2.88;;
27863;SDS011;15980;51.092;13.916;2022-08-01T04:45:23;3.08;;;2.70;;
27863;SDS011;15980;51.092;13.916;2022-08-01T04:50:29;3.75;;;3.25;;
27863;SDS011;15980;51.092;13.916;2022-08-01T04:55:33;4.07;;;2.78;;
27863;SDS011;15980;51.092;13.916;2022-08-01T05:00:36;4.15;;;2.83;;
27863;SDS011;15980;51.092;13.916;2022-08-01T05:05:41;3.13;;;2.67;;
27863;SDS011;15980;51.092;13.916;2022-08-01T05:10:44;4.57;;;2.60;;
27863;SDS011;15980;51.092;13.916;2022-08-01T05:15:47;4.68;;;3.53;;
27863;SDS011;15980;51.092;13.916;2022-08-01T05:20:52;5.70;;;3.70;;
27863;SDS011;15980;51.092;13.916;2022-08-01T05:25:58;5.43;;;3.25;;
27863;SDS011;15980;51.092;13.916;2022-08-01T05:31:01;4.90;;;2.63;;
27863;SDS011;15980;51.092;13.916;2022-08-01T05:36:05;3.42;;;2.65;;
27863;SDS011;15980;51.092;13.916;2022-08-01T05:41:09;3.28;;;2.47;;
27863;SDS011;15980;51.092;13.916;2022-08-01T05:46:13;6.63;;;2.95;;
27863;SDS011;15980;51.092;13.916;2022-08-01T05:51:17;4.50;;;2.85;;
27863;SDS011;15980;51.092;13.916;2022-08-01T05:56:20;4.43;;;3.30;;
27863;SDS011;15980;51.092;13.916;2022-08-01T06:01:24;4.25;;;2.75;;
27863;SDS011;15980;51.092;13.916;2022-08-01T06:06:29;3.38;;;2.53;;
27863;SDS011;15980;51.092;13.916;2022-08-01T06:11:32;4.47;;;3.00;;
27863;SDS011;15980;51.092;13.916;2022-08-01T06:16:35;5.60;;;2.47;;
27863;SDS011;15980;51.092;13.916;2022-08-01T06:21:39;5.57;;;2.85;;
27863;SDS011;15980;51.092;13.916;2022-08-01T06:26:42;3.20;;;2.60;;
27863;SDS011;15980;51.092;13.916;2022-08-01T06:31:45;5.78;;;2.80;;
27863;SDS011;15980;51.092;13.916;2022-08-01T06:36:50;4.82;;;2.47;;
27863;SDS011;15980;51.092;13.916;2022-08-01T06:41:53;5.32;;;2.80;;
27863;SDS011;15980;51.092;13.916;2022-08-01T06:46:56;3.70;;;2.85;;
27863;SDS011;15980;51.092;13.916;2022-08-01T06:52:01;3.40;;;2.45;;
27863;SDS011;15980;51.092;13.916;2022-08-01T06:57:05;6.47;;;3.42;;
27863;SDS011;15980;51.092;13.916;2022-08-01T07:02:08;4.60;;;3.70;;
27863;SDS011;15980;51.092;13.916;2022-08-01T07:07:13;5.50;;;3.90;;
27863;SDS011;15980;51.092;13.916;2022-08-01T07:12:16;5.40;;;3.85;;
27863;SDS011;15980;51.092;13.916;2022-08-01T07:17:19;5.57;;;3.72;;
27863;SDS011;15980;51.092;13.916;2022-08-01T07:22:23;4.47;;;3.55;;
27863;SDS011;15980;51.092;13.916;2022-08-01T07:27:26;4.15;;;3.22;;
27863;SDS011;15980;51.092;13.916;2022-08-01T07:32:29;4.82;;;3.47;;
27863;SDS011;15980;51.092;13.916;2022-08-01T07:37:34;5.80;;;3.50;;
27863;SDS011;15980;51.092;13.916;2022-08-01T07:42:37;3.60;;;3.15;;
27863;SDS011;15980;51.092;13.916;2022-08-01T07:47:40;2.95;;;2.63;;
27863;SDS011;15980;51.092;13.916;2022-08-01T07:52:44;3.45;;;2.95;;
27863;SDS011;15980;51.092;13.916;2022-08-01T07:57:47;2.80;;;2.60;;
27863;SDS011;15980;51.092;13.916;2022-08-01T08:02:51;2.53;;;2.30;;
27863;SDS011;15980;51.092;13.916;2022-08-01T08:07:56;4.80;;;2.88;;
27863;SDS011;15980;51.092;13.916;2022-08-01T08:12:59;4.07;;;2.50;;
27863;SDS011;15980;51.092;13.916;2022-08-01T08:18:03;4.38;;;2.50;;
27863;SDS011;15980;51.092;13.916;2022-08-01T08:23:07;3.38;;;2.33;;
27863;SDS011;15980;51.092;13.916;2022-08-01T08:28:24;3.70;;;2.33;;
27863;SDS011;15980;51.092;13.916;2022-08-01T08:33:28;2.60;;;2.40;;
27863;SDS011;15980;51.092;13.916;2022-08-01T08:38:32;2.75;;;1.98;;
27863;SDS011;15980;51.092;13.916;2022-08-01T08:43:35;2.78;;;2.17;;
27863;SDS011;15980;51.092;13.916;2022-08-01T08:48:39;2.55;;;2.13;;
27863;SDS011;15980;51.092;13.916;2022-08-01T08:53:44;2.13;;;1.80;;
27863;SDS011;15980;51.092;13.916;2022-08-01T08:58:49;3.30;;;1.77;;
27863;SDS011;15980;51.092;13.916;2022-08-01T09:03:53;2.85;;;2.17;;
27863;SDS011;15980;51.092;13.916;2022-08-01T09:08:57;5.20;;;2.00;;
27863;SDS011;15980;51.092;13.916;2022-08-01T09:14:06;3.40;;;2.20;;
27863;SDS011;15980;51.092;13.916;2022-08-01T09:19:11;2.20;;;1.80;;
27863;SDS011;15980;51.092;13.916;2022-08-01T09:24:17;3.33;;;1.70;;
27863;SDS011;15980;51.092;13.916;2022-08-01T09:29:21;3.38;;;1.85;;
27863;SDS011;15980;51.092;13.916;2022-08-01T09:34:25;1.52;;;1.40;;
27863;SDS011;15980;51.092;13.916;2022-08-01T09:39:31;1.88;;;1.52;;
27863;SDS011;15980;51.092;13.916;2022-08-01T09:44:38;2.30;;;1.67;;
27863;SDS011;15980;51.092;13.916;2022-08-01T09:49:43;1.70;;;1.40;;
27863;SDS011;15980;51.092;13.916;2022-08-01T09:54:52;2.92;;;1.67;;
27863;SDS011;15980;51.092;13.916;2022-08-01T09:59:57;2.08;;;1.60;;
27863;SDS011;15980;51.092;13.916;2022-08-01T10:05:02;4.70;;;1.52;;
27863;SDS011;15980;51.092;13.916;2022-08-01T10:10:12;2.28;;;1.60;;
27863;SDS011;15980;51.092;13.916;2022-08-01T10:15:17;2.53;;;1.77;;
27863;SDS011;15980;51.092;13.916;2022-08-01T10:20:22;2.63;;;2.00;;
27863;SDS011;15980;51.092;13.916;2022-08-01T10:25:31;3.78;;;1.95;;
27863;SDS011;15980;51.092;13.916;2022-08-01T10:30:37;2.03;;;1.83;;
27863;SDS011;15980;51.092;13.916;2022-08-01T10:35:44;1.60;;;1.50;;
27863;SDS011;15980;51.092;13.916;2022-08-01T10:40:50;3.10;;;1.60;;
27863;SDS011;15980;51.092;13.916;2022-08-01T10:45:54;2.10;;;1.40;;
27863;SDS011;15980;51.092;13.916;2022-08-01T10:51:00;1.08;;;0.98;;
27863;SDS011;15980;51.092;13.916;2022-08-01T10:56:07;2.60;;;0.90;;
27863;SDS011;15980;51.092;13.916;2022-08-01T11:01:15;1.20;;;1.10;;
27863;SDS011;15980;51.092;13.916;2022-08-01T11:06:24;1.02;;;0.93;;
27863;SDS011;15980;51.092;13.916;2022-08-01T11:11:30;1.30;;;0.80;;
27863;SDS011;15980;51.092;13.916;2022-08-01T11:16:34;0.57;;;0.57;;
27863;SDS011;15980;51.092;13.916;2022-08-01T11:27:17;0.70;;;0.60;;
27863;SDS011;15980;51.092;13.916;2022-08-01T11:32:24;0.70;;;0.50;;
27863;SDS011;15980;51.092;13.916;2022-08-01T11:37:28;10.25;;;0.60;;
27863;SDS011;15980;51.092;13.916;2022-08-01T11:42:33;0.60;;;0.45;;
27863;SDS011;15980;51.092;13.916;2022-08-01T11:47:43;1.17;;;0.68;;
27863;SDS011;15980;51.092;13.916;2022-08-01T11:52:46;0.73;;;0.60;;
27863;SDS011;15980;51.092;13.916;2022-08-01T11:57:58;1.13;;;0.55;;
27863;SDS011;15980;51.092;13.916;2022-08-01T12:03:03;1.02;;;0.63;;
27863;SDS011;15980;51.092;13.916;2022-08-01T12:08:07;1.25;;;0.50;;
27863;SDS011;15980;51.092;13.916;2022-08-01T12:13:11;0.75;;;0.60;;
27863;SDS011;15980;51.092;13.916;2022-08-01T12:18:14;0.98;;;0.68;;
27863;SDS011;15980;51.092;13.916;2022-08-01T12:23:17;0.60;;;0.60;;
27863;SDS011;15980;51.092;13.916;2022-08-01T12:28:22;0.90;;;0.60;;
27863;SDS011;15980;51.092;13.916;2022-08-01T12:33:25;0.75;;;0.57;;
27863;SDS011;15980;51.092;13.916;2022-08-01T12:38:28;0.63;;;0.63;;
27863;SDS011;15980;51.092;13.916;2022-08-01T12:43:35;1.52;;;0.70;;
27863;SDS011;15980;51.092;13.916;2022-08-01T12:48:38;0.50;;;0.50;;
27863;SDS011;15980;51.092;13.916;2022-08-01T12:53:42;2.33;;;0.60;;
27863;SDS011;15980;51.092;13.916;2022-08-01T12:58:47;1.15;;;0.68;;
27863;SDS011;15980;51.092;13.916;2022-08-01T13:03:57;3.00;;;0.80;;
27863;SDS011;15980;51.092;13.916;2022-08-01T13:09:04;0.80;;;0.80;;
27863;SDS011;15980;51.092;13.916;2022-08-01T13:14:09;0.63;;;0.60;;
27863;SDS011;15980;51.092;13.916;2022-08-01T13:19:13;0.98;;;0.82;;
27863;SDS011;15980;51.092;13.916;2022-08-01T13:24:22;0.57;;;0.57;;
27863;SDS011;15980;51.092;13.916;2022-08-01T13:29:32;0.52;;;0.52;;
27863;SDS011;15980;51.092;13.916;2022-08-01T13:34:39;0.85;;;0.75;;
27863;SDS011;15980;51.092;13.916;2022-08-01T13:39:43;0.75;;;0.50;;
27863;SDS011;15980;51.092;13.916;2022-08-01T13:44:48;2.53;;;1.00;;
27863;SDS011;15980;51.092;13.916;2022-08-01T13:49:51;1.05;;;0.90;;
27863;SDS011;15980;51.092;13.916;2022-08-01T13:54:54;4.32;;;0.75;;
27863;SDS011;15980;51.092;13.916;2022-08-01T13:59:59;3.13;;;0.70;;
27863;SDS011;15980;51.092;13.916;2022-08-01T14:05:02;2.90;;;0.60;;
27863;SDS011;15980;51.092;13.916;2022-08-01T14:10:05;0.70;;;0.68;;
27863;SDS011;15980;51.092;13.916;2022-08-01T14:15:10;1.80;;;0.70;;
27863;SDS011;15980;51.092;13.916;2022-08-01T14:20:13;3.97;;;0.68;;
27863;SDS011;15980;51.092;13.916;2022-08-01T14:25:16;1.00;;;0.60;;
27863;SDS011;15980;51.092;13.916;2022-08-01T14:30:21;2.97;;;0.80;;
27863;SDS011;15980;51.092;13.916;2022-08-01T14:35:24;1.02;;;0.80;;
27863;SDS011;15980;51.092;13.916;2022-08-01T14:40:29;3.03;;;0.88;;
27863;SDS011;15980;51.092;13.916;2022-08-01T14:45:33;5.35;;;0.90;;
27863;SDS011;15980;51.092;13.916;2022-08-01T14:50:36;1.63;;;1.00;;
27863;SDS011;15980;51.092;13.916;2022-08-01T14:55:39;0.65;;;0.57;;
27863;SDS011;15980;51.092;13.916;2022-08-01T15:00:44;2.25;;;0.70;;
27863;SDS011;15980;51.092;13.916;2022-08-01T15:05:47;5.10;;;0.77;;
27863;SDS011;15980;51.092;13.916;2022-08-01T15:10:50;0.73;;;0.70;;
27863;SDS011;15980;51.092;13.916;2022-08-01T15:15:55;4.07;;;0.90;;
27863;SDS011;15980;51.092;13.916;2022-08-01T15:20:59;1.05;;;0.90;;
27863;SDS011;15980;51.092;13.916;2022-08-01T15:26:02;1.63;;;1.15;;
27863;SDS011;15980;51.092;13.916;2022-08-01T15:31:06;0.47;;;0.47;;
27863;SDS011;15980;51.092;13.916;2022-08-01T15:36:11;1.75;;;0.60;;
27863;SDS011;15980;51.092;13.916;2022-08-01T15:41:14;0.73;;;0.60;;
27863;SDS011;15980;51.092;13.916;2022-08-01T15:46:18;1.83;;;0.77;;
27863;SDS011;15980;51.092;13.916;2022-08-01T15:51:21;0.95;;;0.77;;
27863;SDS011;15980;51.092;13.916;2022-08-01T15:56:24;2.42;;;0.57;;
27863;SDS011;15980;51.092;13.916;2022-08-01T16:01:30;2.38;;;0.60;;
27863;SDS011;15980;51.092;13.916;2022-08-01T16:06:34;2.50;;;0.73;;
27863;SDS011;15980;51.092;13.916;2022-08-01T16:11:38;0.70;;;0.70;;
27863;SDS011;15980;51.092;13.916;2022-08-01T16:16:44;0.60;;;0.60;;
27863;SDS011;15980;51.092;13.916;2022-08-01T16:21:47;1.88;;;0.60;;
27863;SDS011;15980;51.092;13.916;2022-08-01T16:26:50;1.60;;;0.80;;
27863;SDS011;15980;51.092;13.916;2022-08-01T16:31:55;0.70;;;0.63;;
27863;SDS011;15980;51.092;13.916;2022-08-01T16:36:58;1.25;;;0.80;;
27863;SDS011;15980;51.092;13.916;2022-08-01T16:42:01;1.45;;;0.73;;
27863;SDS011;15980;51.092;13.916;2022-08-01T16:47:05;2.40;;;0.82;;
27863;SDS011;15980;51.092;13.916;2022-08-01T16:52:09;0.40;;;0.40;;
27863;SDS011;15980;51.092;13.916;2022-08-01T16:57:12;1.33;;;0.50;;
27863;SDS011;15980;51.092;13.916;2022-08-01T17:02:17;0.50;;;0.50;;
27863;SDS011;15980;51.092;13.916;2022-08-01T17:07:20;0.50;;;0.50;;
27863;SDS011;15980;51.092;13.916;2022-08-01T17:12:23;0.95;;;0.60;;
27863;SDS011;15980;51.092;13.916;2022-08-01T17:17:27;0.70;;;0.70;;
27863;SDS011;15980;51.092;13.916;2022-08-01T17:22:30;0.70;;;0.60;;
27863;SDS011;15980;51.092;13.916;2022-08-01T17:27:33;0.82;;;0.70;;
27863;SDS011;15980;51.092;13.916;2022-08-01T17:32:38;0.98;;;0.57;;
27863;SDS011;15980;51.092;13.916;2022-08-01T17:37:42;1.85;;;0.60;;
27863;SDS011;15980;51.092;13.916;2022-08-01T17:42:45;1.45;;;0.75;;
27863;SDS011;15980;51.092;13.916;2022-08-01T17:47:50;0.60;;;0.60;;
27863;SDS011;15980;51.092;13.916;2022-08-01T17:52:52;0.80;;;0.70;;
27863;SDS011;15980;51.092;13.916;2022-08-01T17:57:55;1.92;;;0.80;;
27863;SDS011;15980;51.092;13.916;2022-08-01T18:03:00;0.60;;;0.60;;
27863;SDS011;15980;51.092;13.916;2022-08-01T18:08:03;0.90;;;0.60;;
27863;SDS011;15980;51.092;13.916;2022-08-01T18:13:07;0.50;;;0.50;;
27863;SDS011;15980;51.092;13.916;2022-08-01T18:18:12;0.50;;;0.50;;
27863;SDS011;15980;51.092;13.916;2022-08-01T18:23:17;0.65;;;0.40;;
27863;SDS011;15980;51.092;13.916;2022-08-01T18:28:20;0.52;;;0.50;;
27863;SDS011;15980;51.092;13.916;2022-08-01T18:33:25;0.60;;;0.60;;
27863;SDS011;15980;51.092;13.916;2022-08-01T18:38:28;2.00;;;0.50;;
27863;SDS011;15980;51.092;13.916;2022-08-01T18:43:32;0.60;;;0.60;;
27863;SDS011;15980;51.092;13.916;2022-08-01T18:48:38;0.60;;;0.60;;
27863;SDS011;15980;51.092;13.916;2022-08-01T18:53:41;0.73;;;0.50;;
27863;SDS011;15980;51.092;13.916;2022-08-01T18:58:44;3.50;;;0.52;;
27863;SDS011;15980;51.092;13.916;2022-08-01T19:03:48;0.50;;;0.43;;
27863;SDS011;15980;51.092;13.916;2022-08-01T19:08:51;0.75;;;0.50;;
27863;SDS011;15980;51.092;13.916;2022-08-01T19:13:55;1.25;;;0.70;;
27863;SDS011;15980;51.092;13.916;2022-08-01T19:19:00;1.33;;;0.68;;
27863;SDS011;15980;51.092;13.916;2022-08-01T19:24:06;0.63;;;0.60;;
27863;SDS011;15980;51.092;13.916;2022-08-01T19:29:20;0.95;;;0.80;;
27863;SDS011;15980;51.092;13.916;2022-08-01T19:34:26;2.00;;;1.27;;
27863;SDS011;15980;51.092;13.916;2022-08-01T19:39:30;1.40;;;1.10;;
27863;SDS011;15980;51.092;13.916;2022-08-01T19:44:32;1.73;;;1.00;;
27863;SDS011;15980;51.092;13.916;2022-08-01T19:49:38;1.00;;;0.90;;
27863;SDS011;15980;51.092;13.916;2022-08-01T19:54:42;1.55;;;0.88;;
27863;SDS011;15980;51.092;13.916;2022-08-01T19:59:46;0.80;;;0.80;;
27863;SDS011;15980;51.092;13.916;2022-08-01T20:04:53;2.38;;;0.60;;
27863;SDS011;15980;51.092;13.916;2022-08-01T20:09:56;0.80;;;0.70;;
27863;SDS011;15980;51.092;13.916;2022-08-01T20:15:00;2.67;;;1.48;;
27863;SDS011;15980;51.092;13.916;2022-08-01T20:20:05;1.25;;;1.00;;
27863;SDS011;15980;51.092;13.916;2022-08-01T20:25:09;1.20;;;0.90;;
27863;SDS011;15980;51.092;13.916;2022-08-01T20:30:13;2.28;;;0.90;;
27863;SDS011;15980;51.092;13.916;2022-08-01T20:35:18;2.13;;;0.90;;
27863;SDS011;15980;51.092;13.916;2022-08-01T20:40:21;2.20;;;0.90;;
27863;SDS011;15980;51.092;13.916;2022-08-01T20:45:25;1.10;;;0.90;;
27863;SDS011;15980;51.092;13.916;2022-08-01T20:50:29;1.55;;;0.80;;
27863;SDS011;15980;51.092;13.916;2022-08-01T20:55:52;1.40;;;0.65;;
27863;SDS011;15980;51.092;13.916;2022-08-01T21:01:01;0.53;;;0.50;;
27863;SDS011;15980;51.092;13.916;2022-08-01T21:06:07;1.30;;;0.82;;
27863;SDS011;15980;51.092;13.916;2022-08-01T21:11:19;1.30;;;0.70;;
27863;SDS011;15980;51.092;13.916;2022-08-01T21:16:25;0.70;;;0.70;;
27863;SDS011;15980;51.092;13.916;2022-08-01T21:21:32;1.10;;;0.90;;
27863;SDS011;15980;51.092;13.916;2022-08-01T21:26:38;0.70;;;0.70;;
27863;SDS011;15980;51.092;13.916;2022-08-01T21:31:44;0.63;;;0.63;;
27863;SDS011;15980;51.092;13.916;2022-08-01T21:36:49;0.70;;;0.70;;
27863;SDS011;15980;51.092;13.916;2022-08-01T21:41:53;0.98;;;0.70;;
27863;SDS011;15980;51.092;13.916;2022-08-01T21:46:57;0.85;;;0.70;;
27863;SDS011;15980;51.092;13.916;2022-08-01T21:52:03;1.27;;;0.57;;
27863;SDS011;15980;51.092;13.916;2022-08-01T21:57:09;2.03;;;0.90;;
27863;SDS011;15980;51.092;13.916;2022-08-01T22:02:20;1.05;;;0.90;;
27863;SDS011;15980;51.092;13.916;2022-08-01T22:07:30;1.17;;;0.80;;
27863;SDS011;15980;51.092;13.916;2022-08-01T22:12:37;1.08;;;0.82;;
27863;SDS011;15980;51.092;13.916;2022-08-01T22:17:40;1.48;;;0.90;;
27863;SDS011;15980;51.092;13.916;2022-08-01T22:22:47;1.17;;;1.00;;
27863;SDS011;15980;51.092;13.916;2022-08-01T22:27:50;2.15;;;1.13;;
27863;SDS011;15980;51.092;13.916;2022-08-01T22:32:53;1.33;;;0.98;;
27863;SDS011;15980;51.092;13.916;2022-08-01T22:38:00;1.63;;;1.00;;
27863;SDS011;15980;51.092;13.916;2022-08-01T22:43:04;1.00;;;0.90;;
27863;SDS011;15980;51.092;13.916;2022-08-01T22:48:17;1.38;;;0.80;;
27863;SDS011;15980;51.092;13.916;2022-08-01T22:53:23;0.82;;;0.80;;
27863;SDS011;15980;51.092;13.916;2022-08-01T22:58:31;0.70;;;0.70;;
27863;SDS011;15980;51.092;13.916;2022-08-01T23:03:37;1.88;;;0.90;;
27863;SDS011;15980;51.092;13.916;2022-08-01T23:08:43;0.70;;;0.70;;
27863;SDS011;15980;51.092;13.916;2022-08-01T23:13:49;0.98;;;0.90;;
27863;SDS011;15980;51.092;13.916;2022-08-01T23:18:53;2.78;;;0.88;;
27863;SDS011;15980;51.092;13.916;2022-08-01T23:23:58;1.63;;;0.90;;
27863;SDS011;15980;51.092;13.916;2022-08-01T23:29:02;1.17;;;1.08;;
27863;SDS011;15980;51.092;13.916;2022-08-01T23:34:06;1.10;;;1.00;;
27863;SDS011;15980;51.092;13.916;2022-08-01T23:39:10;1.67;;;1.10;;
27863;SDS011;15980;51.092;13.916;2022-08-01T23:44:13;2.05;;;1.30;;
27863;SDS011;15980;51.092;13.916;2022-08-01T23:49:16;1.90;;;1.00;;
27863;SDS011;15980;51.092;13.916;2022-08-01T23:54:21;2.70;;;1.35;;
27863;SDS011;15980;51.092;13.916;2022-08-01T23:59:24;1.50;;;1.30;;
